Accueil
METAR-TAF:

METAR-TAF

Aéroports :

Bordeaux, France

Aéroport de Bordeaux-Mérignac

latitude: 44-50N, longitude: 000-42W, altitude: 49 m

Observation

Le bulletin a été fait il y a 33 minutes, à 09:00 UTC
Vent 8 kt de sud-est
Température 22°C
Humidité 46%
Pression 1023 hPa
Visibilité 10 km ou plus
pas de nuages en-dessous de 1500 mètres et pas de cumulonimbus.

METAR: LFBD 190900Z AUTO 13008KT CAVOK 22/10 Q1023 NOSIG

Heure: 11:33 (09:33 UTC)

Prévision

Le bulletin a été fait il y a 4 heures et 33 minutes, à 05:00 UTC
Prévision valable du 19 à 06 UTC au 20 à 12 UTC
Vent 5 kt de est/sud-est
Visibilité 10 km ou plus
pas de nuages en-dessous de 1500 mètres et pas de cumulonimbus.
Temporairement
du 19 à 12 UTC au 19 à 18 UTC
Vent 12 kt de est/sud-est avec des rafales jusqu'à 22 kt

TAF: LFBD 190500Z 1906/2012 11005KT CAVOK TEMPO 1912/1918 12012G22KT TX28/1914Z TN12/2006Z

Observations et prévisions météorologiques de plus de 4000 aéroports (messages METAR et TAF).

Les stations disponibles sont représentées par des disques jaunes et rouges sur la carte.

Passer la souris dessus pour voir le nom de la station.

Cliquer dessus pour voir les observations et prévisions météorologiques.

Pour changer de carte: cliquez sur les boutons verts avec une croix noire pour zoomer, sur le bouton vert avec un tiret pour effectuer un zoom arrière, ou sur les flèches vertes pour les cartes adjacentes.


METAR-TAF: